Time;durP1;ratioP1;P1;durP2;ratioP2;P2;SDS_P1;SDS_P2;PMS_P1;PMS_P2;Temp;Humidity;BMP_temperature;BMP_pressure;BME280_temperature;BME280_humidity;BME280_pressure;Samples;Min_cycle;Max_cycle;Signal;HPM_P1;HPM_P2
2022/10/19 02:48:22;;;;;;;11.13;4.20;;;11.80;99.90;;;;;;4988044;23;86973;-78
2022/10/19 02:50:48;;;;;;;10.07;4.07;;;11.80;99.90;;;;;;4915453;28;86479;-77
2022/10/19 02:53:14;;;;;;;14.73;5.45;;;11.60;99.90;;;;;;4917055;28;87769;-80
2022/10/19 02:55:41;;;;;;;15.55;4.85;;;11.60;99.90;;;;;;4915603;28;87194;-79
2022/10/19 02:58:07;;;;;;;14.20;4.53;;;11.50;99.90;;;;;;4920131;28;86243;-79
2022/10/19 03:00:32;;;;;;;9.95;4.18;;;11.60;99.90;;;;;;4921831;28;86782;-79
2022/10/19 03:02:58;;;;;;;11.18;4.43;;;11.70;99.90;;;;;;4922008;28;86555;-78
2022/10/19 03:05:24;;;;;;;11.00;4.55;;;11.70;99.90;;;;;;4917044;28;86807;-79
2022/10/19 03:07:50;;;;;;;15.13;5.20;;;11.60;99.90;;;;;;4919566;28;86905;-78
2022/10/19 03:10:15;;;;;;;13.32;5.10;;;11.60;99.90;;;;;;4920618;28;86126;-78
2022/10/19 03:12:41;;;;;;;14.35;5.35;;;11.60;99.90;;;;;;4921779;28;86904;-78
2022/10/19 03:15:07;;;;;;;9.80;4.20;;;11.60;99.90;;;;;;4921343;28;87382;-77
2022/10/19 03:17:33;;;;;;;10.95;4.38;;;11.70;99.90;;;;;;4918455;28;87776;-78
2022/10/19 03:19:59;;;;;;;9.00;5.05;;;11.70;99.90;;;;;;4912881;28;86582;-78
2022/10/19 03:22:24;;;;;;;12.55;4.88;;;11.70;99.90;;;;;;4910293;28;87259;-78
2022/10/19 03:24:50;;;;;;;13.82;4.07;;;11.70;99.90;;;;;;4901829;28;88733;-78
2022/10/19 03:27:16;;;;;;;8.38;4.03;;;11.70;99.90;;;;;;4918836;28;86514;-78
2022/10/19 03:29:41;;;;;;;13.90;3.67;;;11.70;99.90;;;;;;4917553;28;86292;-75
2022/10/19 03:32:07;;;;;;;12.30;3.70;;;11.70;99.90;;;;;;4913819;28;87053;-78
2022/10/19 03:34:33;;;;;;;7.20;3.20;;;11.70;99.90;;;;;;4921390;28;87488;-77
2022/10/19 03:36:58;;;;;;;9.00;3.70;;;11.70;99.90;;;;;;4921184;28;86904;-77
2022/10/19 03:39:24;;;;;;;10.07;3.42;;;11.80;99.90;;;;;;4912570;28;86686;-78
2022/10/19 03:41:50;;;;;;;9.73;3.53;;;11.80;99.90;;;;;;4901505;28;88199;-77
2022/10/19 03:44:16;;;;;;;8.77;3.17;;;11.80;99.90;;;;;;4907601;28;87976;-78
2022/10/19 03:46:41;;;;;;;11.63;3.65;;;11.70;99.90;;;;;;4915838;28;87103;-78
2022/10/19 03:49:08;;;;;;;10.13;4.00;;;11.70;99.90;;;;;;4902050;28;86218;-77
2022/10/19 03:51:34;;;;;;;9.98;3.90;;;11.50;99.90;;;;;;4901119;28;86619;-77
2022/10/19 03:54:02;;;;;;;10.85;3.20;;;11.50;99.90;;;;;;4900838;28;87009;-77
2022/10/19 03:56:29;;;;;;;8.48;3.85;;;11.50;99.90;;;;;;4900007;28;86299;-78
2022/10/19 03:58:57;;;;;;;11.40;3.40;;;11.50;99.90;;;;;;4891190;28;87393;-78
2022/10/19 04:01:25;;;;;;;6.95;3.10;;;11.50;99.90;;;;;;4900380;28;87311;-77
2022/10/19 04:03:58;;;;;;;7.68;3.28;;;11.50;99.90;;;;;;4893278;28;87042;-77
2022/10/19 04:06:32;;;;;;;10.45;3.42;;;11.50;99.90;;;;;;4892465;28;89100;-74
2022/10/19 04:08:58;;;;;;;8.77;3.25;;;11.60;99.90;;;;;;4900067;28;86775;-76
2022/10/19 04:11:27;;;;;;;6.50;3.30;;;11.70;99.90;;;;;;4901245;28;87179;-77
2022/10/19 04:13:53;;;;;;;10.05;3.70;;;11.70;99.90;;;;;;4901452;28;87379;-77
2022/10/19 04:16:20;;;;;;;9.50;3.85;;;11.60;99.90;;;;;;4908142;28;86826;-77
2022/10/19 04:18:46;;;;;;;6.13;2.85;;;11.60;99.90;;;;;;4897792;28;86949;-77
2022/10/19 04:21:27;;;;;;;6.95;3.15;;;11.50;99.90;;;;;;4895436;28;86671;-77
2022/10/19 04:23:57;;;;;;;9.00;3.60;;;11.50;99.90;;;;;;4894372;28;87080;-78
2022/10/19 04:26:23;;;;;;;12.98;3.72;;;11.50;99.90;;;;;;4901369;28;86394;-77
2022/10/19 04:28:49;;;;;;;10.98;3.92;;;11.60;99.90;;;;;;4900967;28;87068;-77
2022/10/19 04:31:14;;;;;;;20.50;4.85;;;11.70;99.90;;;;;;4899454;28;89359;-77
2022/10/19 04:33:41;;;;;;;22.30;5.30;;;11.80;99.90;;;;;;4898049;28;87877;-77
2022/10/19 04:36:09;;;;;;;22.55;5.88;;;11.90;99.90;;;;;;4897082;28;87679;-78
2022/10/19 04:38:35;;;;;;;24.90;5.30;;;11.90;99.90;;;;;;4901106;28;86578;-79
2022/10/19 04:41:02;;;;;;;22.60;5.35;;;11.90;99.90;;;;;;4891471;28;87311;-77
2022/10/19 04:43:28;;;;;;;25.73;6.00;;;12.00;99.90;;;;;;4893654;28;87559;-77
2022/10/19 04:45:53;;;;;;;23.45;5.75;;;12.00;99.90;;;;;;4891244;28;88533;-79
2022/10/19 04:48:19;;;;;;;24.40;5.85;;;12.00;99.90;;;;;;4889719;28;86081;-78
2022/10/19 04:50:45;;;;;;;25.85;6.47;;;12.10;99.90;;;;;;4898145;28;87408;-80
2022/10/19 04:53:10;;;;;;;43.95;6.95;;;12.20;99.90;;;;;;4898761;28;87002;-78
2022/10/19 04:55:44;;;;;;;44.60;6.80;;;12.20;99.90;;;;;;4898609;28;87506;-79
2022/10/19 04:58:10;;;;;;;61.00;7.78;;;12.30;99.90;;;;;;4896960;28;86616;-79
2022/10/19 05:00:39;;;;;;;81.72;8.40;;;12.20;99.90;;;;;;4891089;28;87236;-79
2022/10/19 05:03:04;;;;;;;26.70;7.53;;;12.00;99.90;;;;;;4893170;28;87460;-78
2022/10/19 05:05:31;;;;;;;64.82;8.57;;;12.00;99.90;;;;;;4897044;28;86416;-78
2022/10/19 05:07:57;;;;;;;88.60;9.45;;;11.90;99.90;;;;;;4898916;28;86555;-79
2022/10/19 05:10:23;;;;;;;42.17;7.97;;;11.80;99.90;;;;;;4896308;28;87044;-79
2022/10/19 05:12:48;;;;;;;24.75;7.32;;;11.70;99.90;;;;;;4892719;28;87558;-81
2022/10/19 05:15:14;;;;;;;25.40;7.05;;;11.80;99.90;;;;;;4895414;28;86838;-79
2022/10/19 05:17:40;;;;;;;26.13;7.03;;;11.80;99.90;;;;;;4897766;28;86797;-81
2022/10/19 05:20:06;;;;;;;15.50;6.50;;;11.90;99.90;;;;;;4896837;28;87750;-80
2022/10/19 05:22:32;;;;;;;20.90;6.75;;;12.00;99.90;;;;;;4888322;28;88035;-81
2022/10/19 05:24:57;;;;;;;16.60;6.10;;;12.10;99.90;;;;;;4896813;28;86801;-80
2022/10/19 05:27:23;;;;;;;31.30;7.78;;;12.10;99.90;;;;;;4901836;28;87115;-79
2022/10/19 05:29:49;;;;;;;14.27;5.93;;;12.10;99.90;;;;;;4900207;28;87252;-80
2022/10/19 05:32:14;;;;;;;16.70;7.85;;;12.10;99.90;;;;;;4898282;28;87877;-80
2022/10/19 05:34:40;;;;;;;23.92;7.65;;;12.00;99.90;;;;;;4896191;28;86534;-80
2022/10/19 05:37:06;;;;;;;34.70;7.43;;;11.90;99.90;;;;;;4891608;28;85820;-80
2022/10/19 05:39:32;;;;;;;15.10;6.78;;;11.80;99.90;;;;;;4895295;28;87226;-81
2022/10/19 05:41:57;;;;;;;15.55;7.03;;;11.80;99.90;;;;;;4897403;28;87897;-80
2022/10/19 05:44:23;;;;;;;13.13;6.00;;;11.60;99.90;;;;;;4898828;28;87965;-82
2022/10/19 05:46:50;;;;;;;11.55;5.07;;;11.40;99.90;;;;;;4893152;28;86660;-80
2022/10/19 05:49:18;;;;;;;13.70;5.18;;;11.40;99.90;;;;;;4898039;28;87642;-81
2022/10/19 05:51:44;;;;;;;9.00;4.75;;;11.50;99.90;;;;;;4897294;28;88132;-80
2022/10/19 05:54:11;;;;;;;13.52;5.22;;;11.30;99.90;;;;;;4900027;28;86710;-81
2022/10/19 05:56:37;;;;;;;13.20;4.68;;;11.40;99.90;;;;;;4886442;28;86301;-81
2022/10/19 05:59:05;;;;;;;15.93;5.60;;;11.40;99.90;;;;;;4897734;28;88523;-79
2022/10/19 06:01:32;;;;;;;12.30;4.70;;;11.40;99.90;;;;;;4898237;28;86486;-79
2022/10/19 06:03:58;;;;;;;10.90;4.78;;;11.40;99.90;;;;;;4899405;28;86410;-80
2022/10/19 06:06:25;;;;;;;20.00;5.10;;;11.50;99.90;;;;;;4897749;28;87174;-80
2022/10/19 06:08:52;;;;;;;9.15;4.28;;;11.60;99.90;;;;;;4891549;28;89659;-79
2022/10/19 06:11:20;;;;;;;14.93;5.40;;;11.70;99.90;;;;;;4886709;28;88817;-79
2022/10/19 06:13:49;;;;;;;16.63;6.50;;;11.90;99.90;;;;;;4893552;28;86246;-80
2022/10/19 06:16:15;;;;;;;20.40;6.03;;;12.30;99.90;;;;;;4898692;28;86860;-79
2022/10/19 06:18:41;;;;;;;13.43;6.10;;;12.90;99.90;;;;;;4899482;28;87008;-80
2022/10/19 06:21:10;;;;;;;10.13;5.60;;;13.90;99.90;;;;;;4906850;28;87328;-81
2022/10/19 06:23:36;;;;;;;15.75;7.05;;;14.90;99.90;;;;;;4898905;28;86717;-82
2022/10/19 06:26:04;;;;;;;13.63;6.03;;;15.00;99.90;;;;;;4899682;28;85787;-79
2022/10/19 06:28:30;;;;;;;10.80;5.25;;;14.60;99.90;;;;;;4898307;28;87317;-77
2022/10/19 06:30:59;;;;;;;10.15;4.75;;;14.10;99.90;;;;;;4897047;28;86658;-77
2022/10/19 06:33:26;;;;;;;10.77;4.50;;;13.80;99.90;;;;;;4897501;28;87178;-78
2022/10/19 06:35:52;;;;;;;14.27;5.00;;;13.20;99.90;;;;;;4900190;28;87125;-78
2022/10/19 06:38:18;;;;;;;13.95;4.28;;;13.00;99.90;;;;;;4901959;28;86804;-77
2022/10/19 06:40:43;;;;;;;11.27;4.50;;;12.70;99.90;;;;;;4899834;28;87873;-80
2022/10/19 06:43:09;;;;;;;17.05;4.93;;;12.90;99.90;;;;;;4899089;28;87226;-80
2022/10/19 06:45:38;;;;;;;18.20;6.38;;;13.20;99.90;;;;;;4895077;28;87176;-79
2022/10/19 06:48:04;;;;;;;16.45;5.30;;;13.20;99.90;;;;;;4893529;28;87779;-79
2022/10/19 06:50:31;;;;;;;13.35;5.55;;;13.50;99.90;;;;;;4898899;28;86446;-80
2022/10/19 06:52:59;;;;;;;17.02;5.63;;;13.80;99.90;;;;;;4892967;28;86683;-79
2022/10/19 06:55:25;;;;;;;17.98;6.00;;;14.00;99.90;;;;;;4900707;28;86996;-81
2022/10/19 06:57:51;;;;;;;18.38;6.20;;;13.80;99.90;;;;;;4897399;28;88261;-81
2022/10/19 07:00:17;;;;;;;14.45;5.10;;;13.90;99.90;;;;;;4889830;28;89432;-82
2022/10/19 07:02:42;;;;;;;26.30;4.93;;;13.80;99.90;;;;;;4889858;28;86741;-82
2022/10/19 07:05:09;;;;;;;67.57;5.72;;;13.50;99.90;;;;;;4896770;28;86813;-82
2022/10/19 07:07:35;;;;;;;13.77;5.05;;;13.50;99.90;;;;;;4896603;28;86735;-82
2022/10/19 07:10:01;;;;;;;12.52;4.50;;;13.40;99.90;;;;;;4896733;28;86230;-81
2022/10/19 07:12:26;;;;;;;10.35;4.50;;;13.70;99.90;;;;;;4907636;28;86722;-81
2022/10/19 07:14:54;;;;;;;12.38;3.90;;;14.20;99.90;;;;;;4895942;28;85593;-81
2022/10/19 07:17:20;;;;;;;11.63;4.45;;;14.70;99.90;;;;;;4896289;28;86849;-82
2022/10/19 07:19:45;;;;;;;12.35;4.53;;;14.90;99.90;;;;;;4896748;28;87526;-81
2022/10/19 07:22:11;;;;;;;13.68;4.72;;;15.30;99.90;;;;;;4897744;28;87896;-80
2022/10/19 07:24:37;;;;;;;15.95;5.28;;;15.70;99.90;;;;;;4898990;28;86601;-81
2022/10/19 07:27:03;;;;;;;33.95;5.20;;;15.80;99.90;;;;;;4900130;28;87113;-82
2022/10/19 07:29:28;;;;;;;19.60;5.93;;;16.00;99.90;;;;;;4897829;28;86794;-82
2022/10/19 07:31:54;;;;;;;21.20;5.70;;;16.00;99.90;;;;;;4898093;28;86604;-82
2022/10/19 07:34:20;;;;;;;28.60;6.82;;;16.00;99.90;;;;;;4897116;28;86939;-82
2022/10/19 07:36:46;;;;;;;20.95;6.35;;;15.50;99.90;;;;;;4894839;28;88353;-82
2022/10/19 07:39:13;;;;;;;16.77;6.13;;;15.50;99.90;;;;;;4896497;28;86535;-82
2022/10/19 07:41:39;;;;;;;15.27;6.20;;;15.70;99.90;;;;;;4898638;28;86335;-82
2022/10/19 07:44:05;;;;;;;16.67;6.60;;;16.10;99.90;;;;;;4897531;28;86351;-82
2022/10/19 07:46:32;;;;;;;14.32;5.80;;;16.40;99.90;;;;;;4898365;28;87888;-79
2022/10/19 07:48:59;;;;;;;16.08;5.57;;;16.90;99.90;;;;;;4896737;28;87984;-79
2022/10/19 07:51:25;;;;;;;14.90;5.68;;;17.50;99.90;;;;;;4897502;28;86749;-79
2022/10/19 07:53:51;;;;;;;18.05;6.72;;;18.40;99.60;;;;;;4897512;28;86897;-81
2022/10/19 07:56:19;;;;;;;16.52;7.40;;;19.10;95.60;;;;;;4898275;28;86663;-81
2022/10/19 07:58:46;;;;;;;11.95;5.18;;;19.40;93.60;;;;;;4898859;28;86415;-81
2022/10/19 08:01:14;;;;;;;11.85;5.25;;;19.40;92.60;;;;;;4893454;28;86846;-81
2022/10/19 08:03:41;;;;;;;10.27;5.32;;;19.40;92.90;;;;;;4900245;28;85526;-81
2022/10/19 08:06:12;;;;;;;14.68;5.45;;;19.50;92.60;;;;;;4901119;28;88699;-82
2022/10/19 08:08:39;;;;;;;11.77;4.68;;;19.50;92.10;;;;;;4890050;28;87510;-82
2022/10/19 08:11:12;;;;;;;14.02;5.82;;;19.60;90.60;;;;;;4899306;28;87653;-81
2022/10/19 08:13:38;;;;;;;11.95;4.95;;;19.40;91.50;;;;;;4900239;28;86414;-82
2022/10/19 08:16:05;;;;;;;9.52;4.55;;;20.40;90.40;;;;;;4901082;28;87233;-80
2022/10/19 08:18:30;;;;;;;19.05;5.32;;;22.80;83.10;;;;;;4901380;28;87076;-81
2022/10/19 08:20:56;;;;;;;12.75;5.10;;;26.20;74.30;;;;;;4899763;28;86190;-81
2022/10/19 08:23:22;;;;;;;8.70;4.78;;;29.00;60.60;;;;;;4901940;28;86222;-81
2022/10/19 08:25:49;;;;;;;14.98;5.95;;;31.20;57.40;;;;;;4901112;28;87400;-81
2022/10/19 08:28:15;;;;;;;11.02;4.50;;;30.20;50.70;;;;;;4894439;28;87041;-81
2022/10/19 08:30:40;;;;;;;8.23;4.70;;;29.10;55.10;;;;;;4896964;28;86551;-81
2022/10/19 08:33:07;;;;;;;13.85;5.07;;;29.50;56.60;;;;;;4896480;28;87502;-81
2022/10/19 08:35:34;;;;;;;15.05;5.55;;;30.60;52.00;;;;;;4900844;28;88176;-82
2022/10/19 08:37:59;;;;;;;10.63;4.53;;;31.70;51.50;;;;;;4898342;28;87663;-82
2022/10/19 08:40:28;;;;;;;10.80;4.72;;;33.40;50.40;;;;;;4899582;28;86281;-83
2022/10/19 08:43:01;;;;;;;10.68;5.63;;;32.40;46.70;;;;;;4899532;28;86383;-81
2022/10/19 08:45:37;;;;;;;11.60;5.15;;;29.80;50.00;;;;;;4896620;28;86675;-81
2022/10/19 08:48:21;;;;;;;8.15;4.75;;;26.80;54.90;;;;;;4900224;28;86669;-81
2022/10/19 08:50:47;;;;;;;9.85;4.88;;;25.00;59.00;;;;;;4897808;28;86247;-81
2022/10/19 08:53:41;;;;;;;7.90;5.72;;;24.90;62.10;;;;;;4901364;28;86066;-82
2022/10/19 08:56:29;;;;;;;8.95;4.28;;;28.30;58.70;;;;;;4884359;28;87252;-82
2022/10/19 08:58:55;;;;;;;;;;;32.40;50.20;;;;;;4895651;28;87087;-82
2022/10/19 09:01:26;;;;;;;11.95;4.88;;;34.60;46.60;;;;;;4896143;28;89011;-82
2022/10/19 09:04:06;;;;;;;9.52;4.53;;;35.70;42.70;;;;;;4896211;28;86734;-82
2022/10/19 09:06:47;;;;;;;7.43;4.32;;;36.40;42.60;;;;;;4897950;28;87282;-83
2022/10/19 09:09:14;;;;;;;;;;;37.20;39.90;;;;;;4899919;28;86514;-83
2022/10/19 09:11:45;;;;;;;9.30;5.15;;;36.30;41.50;;;;;;4895077;28;86997;-83
2022/10/19 09:14:37;;;;;;;8.43;5.00;;;36.60;41.00;;;;;;4895565;28;87772;-83
2022/10/19 09:17:10;;;;;;;9.45;5.25;;;37.20;39.70;;;;;;4878807;28;87212;-83
2022/10/19 09:19:36;;;;;;;12.35;5.60;;;37.70;39.90;;;;;;4895870;28;86162;-82
2022/10/19 09:22:28;;;;;;;6.90;4.90;;;36.90;38.20;;;;;;4900029;28;86817;-83
2022/10/19 09:24:59;;;;;;;8.40;4.55;;;36.80;41.00;;;;;;4890687;28;86850;-83
2022/10/19 09:27:32;;;;;;;8.90;4.50;;;37.70;39.40;;;;;;4897461;28;89258;-83
2022/10/19 09:30:02;;;;;;;10.18;4.90;;;38.90;39.20;;;;;;4897814;28;87028;-83
2022/10/19 09:32:37;;;;;;;11.48;4.75;;;39.40;36.60;;;;;;4896884;28;86735;-83
2022/10/19 09:35:04;;;;;;;;;;;39.90;36.20;;;;;;4896024;28;87572;-83
2022/10/19 09:37:35;;;;;;;6.22;4.45;;;40.20;35.70;;;;;;4892622;28;90451;-83
2022/10/19 09:40:01;;;;;;;7.88;5.13;;;39.30;37.10;;;;;;4900258;28;86872;-83
2022/10/19 09:42:31;;;;;;;9.30;4.78;;;39.80;36.10;;;;;;4898683;28;86938;-83
2022/10/19 09:44:59;;;;;;;7.30;4.72;;;40.50;35.50;;;;;;4899293;28;85861;-84
2022/10/19 09:47:47;;;;;;;8.40;5.38;;;41.20;34.80;;;;;;4895471;28;87312;-84
2022/10/19 09:50:15;;;;;;;;;;;41.30;33.60;;;;;;4898023;28;86839;-83
2022/10/19 09:52:43;;;;;;;8.63;5.10;;;39.20;36.00;;;;;;4896484;28;87292;-83
2022/10/19 09:55:14;;;;;;;7.43;5.18;;;37.80;38.10;;;;;;4894189;28;86812;-83
2022/10/19 09:57:45;;;;;;;8.30;5.18;;;37.70;38.20;;;;;;4893033;28;88072;-83
2022/10/19 10:00:23;;;;;;;8.52;5.53;;;38.80;36.90;;;;;;4896607;28;87021;-83
2022/10/19 10:02:51;;;;;;;7.80;4.97;;;39.50;35.40;;;;;;4897841;28;86746;-83
2022/10/19 10:05:17;;;;;;;9.48;5.50;;;40.70;34.60;;;;;;4898530;28;86575;-85
2022/10/19 10:07:43;;;;;;;9.48;5.25;;;41.00;33.80;;;;;;4898948;28;87152;-83
2022/10/19 10:10:23;;;;;;;11.93;7.50;;;39.70;34.80;;;;;;4892592;28;86416;-83
2022/10/19 10:12:51;;;;;;;7.78;4.55;;;37.50;36.80;;;;;;4895649;28;86321;-84
2022/10/19 10:15:20;;;;;;;;;;;38.30;37.10;;;;;;4907993;28;86468;-84
2022/10/19 10:17:48;;;;;;;9.68;7.78;;;39.10;35.30;;;;;;4894465;28;87638;-84
2022/10/19 10:20:27;;;;;;;9.65;5.70;;;38.00;36.00;;;;;;4894194;28;88140;-82
2022/10/19 10:22:56;;;;;;;6.88;5.07;;;36.40;36.80;;;;;;4891918;28;87074;-83
2022/10/19 10:25:26;;;;;;;7.88;5.10;;;34.00;40.10;;;;;;4888666;28;87012;-82
2022/10/19 10:28:16;;;;;;;8.27;5.30;;;31.90;43.00;;;;;;4890031;28;87592;-82
2022/10/19 10:30:59;;;;;;;8.00;4.55;;;29.20;47.50;;;;;;4883534;28;88201;-82
2022/10/19 10:33:27;;;;;;;9.45;4.00;;;27.30;49.90;;;;;;4887706;28;86568;-82
2022/10/19 10:36:02;;;;;;;9.98;3.65;;;25.90;53.50;;;;;;4890914;28;85999;-81
2022/10/19 10:38:37;;;;;;;7.72;4.32;;;25.10;56.10;;;;;;4887767;28;87606;-81
2022/10/19 10:41:15;;;;;;;10.30;3.70;;;24.30;57.60;;;;;;4888372;28;87995;-81
2022/10/19 10:43:51;;;;;;;10.05;3.85;;;23.60;59.80;;;;;;4886767;28;87803;-81
2022/10/19 10:46:21;;;;;;;10.10;3.22;;;23.20;60.70;;;;;;4884321;28;87074;-81
2022/10/19 10:48:57;;;;;;;7.53;3.47;;;22.50;63.40;;;;;;4889738;28;88461;-80
2022/10/19 10:51:41;;;;;;;9.65;3.30;;;22.00;66.10;;;;;;4887481;28;88396;-81
2022/10/19 10:54:19;;;;;;;10.38;3.25;;;21.40;67.70;;;;;;4889314;28;86337;-81
2022/10/19 10:57:11;;;;;;;7.35;3.30;;;21.10;70.60;;;;;;4892262;28;87107;-80
2022/10/19 10:59:52;;;;;;;6.60;2.92;;;20.80;70.60;;;;;;4894032;28;86695;-80
2022/10/19 11:03:13;;;;;;;6.38;3.25;;;21.00;69.80;;;;;;4895134;28;88733;-80
2022/10/19 11:05:50;;;;;;;9.30;3.60;;;20.80;71.60;;;;;;4820451;29;86759;-80
2022/10/19 11:09:00;;;;;;;9.02;3.47;;;20.60;73.80;;;;;;4819624;29;86578;-81
2022/10/19 11:11:31;;;;;;;8.20;3.78;;;20.50;73.90;;;;;;4848166;28;88350;-80
2022/10/19 11:14:16;;;;;;;7.60;3.05;;;20.60;73.40;;;;;;4889189;28;87982;-80
2022/10/19 11:16:45;;;;;;;8.13;3.28;;;20.60;73.80;;;;;;4894430;28;86477;-79
2022/10/19 11:19:29;;;;;;;12.95;3.53;;;20.40;74.80;;;;;;4902668;28;86210;-80
2022/10/19 11:22:15;;;;;;;8.18;3.38;;;20.10;77.70;;;;;;4900787;28;87281;-80
2022/10/19 11:25:00;;;;;;;9.05;3.00;;;20.10;75.90;;;;;;4898475;28;86967;-79
2022/10/19 11:27:52;;;;;;;8.93;3.65;;;20.40;74.50;;;;;;4899867;28;86789;-78
2022/10/19 11:30:19;;;;;;;12.70;3.70;;;20.50;77.90;;;;;;4902839;28;85751;-78
2022/10/19 11:32:45;;;;;;;9.68;3.80;;;20.20;78.20;;;;;;4896906;28;89181;-80
2022/10/19 11:35:38;;;;;;;9.90;3.75;;;20.10;78.60;;;;;;4900266;28;87498;-80
2022/10/19 11:38:25;;;;;;;7.78;2.90;;;19.80;77.30;;;;;;4897329;28;87616;-80
2022/10/19 11:41:25;;;;;;;12.95;3.92;;;19.80;79.40;;;;;;4900319;28;86946;-81
2022/10/19 11:43:50;;;;;;;6.93;3.63;;;19.70;80.60;;;;;;4894685;28;86526;-79
2022/10/19 11:46:28;;;;;;;14.35;3.63;;;19.70;82.10;;;;;;4898275;28;86866;-80
2022/10/19 11:49:07;;;;;;;10.02;3.65;;;19.70;81.10;;;;;;4899084;28;87161;-79
2022/10/19 11:51:41;;;;;;;7.65;3.20;;;19.90;79.90;;;;;;4894620;28;87115;-80
2022/10/19 11:54:31;;;;;;;8.95;3.55;;;19.90;80.60;;;;;;4895154;28;86811;-78
2022/10/19 11:57:07;;;;;;;9.05;4.05;;;19.80;80.10;;;;;;4896687;28;87375;-79
2022/10/19 12:00:10;;;;;;;11.15;4.05;;;19.60;81.80;;;;;;4893006;28;86521;-80
2022/10/19 12:02:57;;;;;;;6.63;3.88;;;19.60;81.30;;;;;;4896526;28;86993;-80
2022/10/19 12:05:44;;;;;;;11.07;4.13;;;19.50;83.70;;;;;;4897365;28;88324;-79
2022/10/19 12:08:37;;;;;;;13.75;3.53;;;19.50;82.80;;;;;;4892897;28;88428;-79
2022/10/19 12:11:18;;;;;;;7.70;2.85;;;19.70;82.40;;;;;;4894277;28;86462;-79
2022/10/19 12:13:50;;;;;;;10.05;3.70;;;19.70;82.80;;;;;;4898861;28;87076;-79
2022/10/19 12:16:17;;;;;;;7.57;3.50;;;19.80;84.40;;;;;;4895779;28;88306;-79
2022/10/19 12:18:50;;;;;;;8.05;4.20;;;19.70;83.30;;;;;;4890183;28;86459;-79
2022/10/19 12:21:28;;;;;;;9.68;4.78;;;19.60;83.00;;;;;;4898462;28;86472;-77
2022/10/19 12:23:57;;;;;;;8.57;3.63;;;19.80;83.00;;;;;;4895049;28;87567;-76
2022/10/19 12:26:24;;;;;;;8.15;4.25;;;19.80;82.50;;;;;;4902915;28;86650;-77
2022/10/19 12:28:54;;;;;;;7.80;3.53;;;19.80;83.20;;;;;;4898654;28;86879;-76
2022/10/19 12:31:23;;;;;;;9.73;4.55;;;19.80;83.20;;;;;;4893703;28;87207;-76
2022/10/19 12:34:17;;;;;;;10.20;4.18;;;19.90;83.70;;;;;;4899807;28;87734;-77
2022/10/19 12:36:59;;;;;;;14.80;4.72;;;19.80;83.90;;;;;;4895849;28;87174;-76
2022/10/19 12:39:38;;;;;;;11.23;4.53;;;19.70;84.70;;;;;;4898521;28;87084;-77
2022/10/19 12:42:28;;;;;;;9.57;4.70;;;19.60;85.60;;;;;;4899574;28;86918;-77
2022/10/19 12:44:59;;;;;;;10.88;3.47;;;19.80;85.10;;;;;;4891046;28;86734;-77
2022/10/19 12:47:25;;;;;;;8.85;3.65;;;19.80;84.80;;;;;;4893880;28;87110;-79
2022/10/19 12:49:55;;;;;;;11.27;4.25;;;19.80;84.80;;;;;;4898852;28;86263;-78
2022/10/19 12:52:41;;;;;;;8.82;3.13;;;19.70;85.70;;;;;;4893207;28;87455;-77
2022/10/19 12:55:14;;;;;;;9.38;3.55;;;19.50;85.30;;;;;;4897173;28;86867;-77
2022/10/19 12:57:46;;;;;;;10.55;3.08;;;19.50;84.90;;;;;;4893396;28;88250;-77
2022/10/19 13:00:20;;;;;;;7.65;3.85;;;19.70;84.40;;;;;;4898726;28;88517;-78
2022/10/19 13:02:54;;;;;;;9.18;4.07;;;19.60;84.50;;;;;;4897558;28;86713;-76
2022/10/19 13:05:22;;;;;;;9.30;3.65;;;19.50;86.00;;;;;;4891322;28;86366;-80
2022/10/19 13:07:49;;;;;;;13.65;5.18;;;19.60;86.00;;;;;;4892939;28;87175;-77
2022/10/19 13:10:22;;;;;;;8.85;4.55;;;19.40;87.20;;;;;;4897092;28;87565;-78
2022/10/19 13:12:48;;;;;;;13.55;4.20;;;19.30;87.80;;;;;;4896551;28;87254;-77
2022/10/19 13:15:32;;;;;;;6.82;3.83;;;19.30;87.80;;;;;;4896542;28;86414;-77
2022/10/19 13:17:58;;;;;;;9.70;4.72;;;19.20;89.60;;;;;;4893803;28;87627;-78
2022/10/19 13:20:24;;;;;;;9.68;3.38;;;19.20;90.10;;;;;;4892808;28;87456;-78
2022/10/19 13:23:10;;;;;;;8.52;3.30;;;19.30;89.60;;;;;;4896641;28;88380;-77
2022/10/19 13:25:36;;;;;;;12.43;3.97;;;19.40;89.30;;;;;;4883356;28;86746;-77
2022/10/19 13:28:05;;;;;;;12.13;4.93;;;19.40;88.40;;;;;;4895835;28;86943;-77
2022/10/19 13:30:37;;;;;;;10.65;4.13;;;19.50;88.10;;;;;;4895396;28;86858;-77
2022/10/19 13:33:23;;;;;;;10.88;3.70;;;19.40;89.20;;;;;;4887300;28;86465;-77
2022/10/19 13:36:08;;;;;;;13.80;4.40;;;19.30;89.90;;;;;;4889102;28;87214;-77
2022/10/19 13:38:39;;;;;;;7.72;3.55;;;19.30;90.40;;;;;;4894070;28;87460;-79
2022/10/19 13:41:18;;;;;;;8.45;4.47;;;19.30;90.00;;;;;;4892781;28;87108;-80
2022/10/19 13:43:51;;;;;;;8.95;3.67;;;19.30;90.50;;;;;;4897612;28;86683;-79
2022/10/19 13:46:29;;;;;;;10.02;3.70;;;19.30;90.30;;;;;;4900291;28;86266;-79
2022/10/19 13:49:06;;;;;;;13.52;4.30;;;19.30;90.90;;;;;;4894969;28;89381;-79
2022/10/19 13:52:09;;;;;;;9.80;3.58;;;19.20;90.60;;;;;;4887923;28;87920;-78
2022/10/19 13:54:43;;;;;;;11.70;4.15;;;19.40;90.40;;;;;;4893797;28;87109;-78
2022/10/19 13:57:17;;;;;;;6.10;3.47;;;19.40;90.50;;;;;;4899502;28;86200;-79
2022/10/19 14:00:02;;;;;;;9.05;3.53;;;19.30;90.40;;;;;;4896150;28;86626;-78
2022/10/19 14:03:09;;;;;;;9.45;3.80;;;19.40;90.30;;;;;;4898902;28;87402;-78
2022/10/19 14:05:40;;;;;;;6.35;3.15;;;19.30;90.30;;;;;;4899197;28;87342;-78
2022/10/19 14:08:28;;;;;;;9.45;3.92;;;19.40;90.30;;;;;;4897425;28;85803;-78
2022/10/19 14:11:16;;;;;;;8.82;3.70;;;19.30;90.90;;;;;;4895415;28;87349;-79
2022/10/19 14:13:43;;;;;;;7.75;3.42;;;19.40;90.60;;;;;;4892840;28;86336;-76
2022/10/19 14:16:21;;;;;;;8.40;3.53;;;19.40;90.60;;;;;;4894910;28;87649;-76
2022/10/19 14:18:54;;;;;;;9.95;3.50;;;19.30;90.50;;;;;;4897987;28;86308;-77
2022/10/19 14:21:32;;;;;;;9.65;4.18;;;19.30;90.90;;;;;;4899131;28;87314;-76
2022/10/19 14:23:58;;;;;;;12.55;3.90;;;19.30;91.30;;;;;;4890419;28;87273;-76
2022/10/19 14:26:28;;;;;;;8.48;3.78;;;19.20;91.40;;;;;;4890243;28;86993;-76
2022/10/19 14:28:57;;;;;;;7.80;3.75;;;19.20;91.60;;;;;;4904559;28;87147;-77
2022/10/19 14:31:29;;;;;;;11.38;3.45;;;19.20;91.40;;;;;;4902094;28;87691;-76
2022/10/19 14:33:59;;;;;;;10.68;3.63;;;19.30;91.30;;;;;;4898813;28;87097;-76
2022/10/19 14:36:35;;;;;;;6.78;3.10;;;19.30;91.50;;;;;;4899150;28;87183;-76
2022/10/19 14:39:01;;;;;;;8.25;3.60;;;19.30;91.20;;;;;;4899700;28;86973;-76
2022/10/19 14:41:26;;;;;;;9.32;2.97;;;19.30;91.30;;;;;;4894283;28;88163;-76
2022/10/19 14:43:53;;;;;;;9.50;3.25;;;19.20;91.60;;;;;;4899073;28;88160;-76
2022/10/19 14:46:19;;;;;;;6.57;3.22;;;19.20;91.60;;;;;;4897558;28;87081;-76
2022/10/19 14:48:47;;;;;;;8.70;3.50;;;19.10;91.80;;;;;;4899304;28;86245;-76
2022/10/19 14:51:16;;;;;;;7.15;2.92;;;19.00;92.10;;;;;;4898818;28;86983;-75
2022/10/19 14:53:45;;;;;;;7.88;2.55;;;19.00;91.80;;;;;;4899557;28;86739;-77
2022/10/19 14:56:27;;;;;;;5.47;2.33;;;19.10;91.90;;;;;;4897390;28;86945;-76
2022/10/19 14:58:58;;;;;;;6.53;3.22;;;19.00;92.00;;;;;;4898886;28;85948;-76
2022/10/19 15:01:24;;;;;;;8.63;2.83;;;19.00;92.20;;;;;;4893913;28;87322;-76
2022/10/19 15:03:50;;;;;;;11.23;3.45;;;19.00;91.80;;;;;;4898764;28;87005;-76
2022/10/19 15:06:27;;;;;;;6.25;2.45;;;18.90;92.20;;;;;;4905494;28;88067;-76
2022/10/19 15:08:56;;;;;;;7.50;2.65;;;18.90;92.00;;;;;;4894781;28;87602;-76
2022/10/19 15:11:27;;;;;;;10.13;3.33;;;18.90;92.10;;;;;;4907241;28;87758;-76
2022/10/19 15:14:07;;;;;;;11.90;2.85;;;18.90;92.50;;;;;;4902274;28;87016;-76
2022/10/19 15:16:55;;;;;;;9.45;3.17;;;18.80;92.70;;;;;;4896613;28;87064;-77
2022/10/19 15:19:37;;;;;;;7.75;3.00;;;18.80;92.50;;;;;;4908008;28;87424;-76
2022/10/19 15:22:13;;;;;;;5.53;2.53;;;18.90;92.00;;;;;;4900704;28;87266;-77
2022/10/19 15:25:04;;;;;;;7.47;3.30;;;19.00;92.20;;;;;;4897718;28;86919;-76
2022/10/19 15:27:37;;;;;;;6.13;2.88;;;19.00;91.90;;;;;;4900966;28;86304;-76
2022/10/19 15:30:24;;;;;;;9.18;3.47;;;19.00;92.30;;;;;;4905074;28;86830;-76
2022/10/19 15:32:57;;;;;;;8.65;2.75;;;18.90;92.50;;;;;;4900600;28;87730;-76
2022/10/19 15:35:28;;;;;;;7.05;3.20;;;19.00;92.40;;;;;;4891752;28;87293;-76
2022/10/19 15:38:23;;;;;;;6.90;2.65;;;19.00;92.30;;;;;;4888197;28;87033;-76
2022/10/19 15:40:56;;;;;;;10.27;3.03;;;18.90;92.30;;;;;;4888987;28;86752;-77
2022/10/19 15:43:34;;;;;;;6.68;2.75;;;18.80;92.60;;;;;;4889147;28;87450;-82
2022/10/19 15:46:00;;;;;;;7.65;3.40;;;18.80;92.70;;;;;;4896657;28;86965;-80
2022/10/19 15:48:46;;;;;;;16.65;4.40;;;18.80;92.80;;;;;;4892574;28;88584;-81
2022/10/19 15:51:41;;;;;;;63.47;33.50;;;18.70;93.20;;;;;;4901174;28;85622;-80
2022/10/19 15:54:07;;;;;;;21.10;10.57;;;18.60;93.50;;;;;;4887199;28;87075;-81